Impacts METAR Board
IDs:

KEWR - Newark Intl, NJ, US

Updated at: 1000 UTC 22 Apr 2018
Potential Impact None Slight Moderate High
Time 21/22Z 21/23Z 22/00Z 22/01Z 22/02Z 22/03Z 22/04Z 22/05Z 22/06Z 22/07Z 22/08Z 22/09Z 22/10Z
Temp62 61 60 58 57 55 54 52 51 49 48 46 44
Dewpt33 32 31 30 28 27 26 24 22 20 20 19 18
Altim30.26 30.26 30.29 30.31 30.33 30.34 30.35 30.36 30.37 30.38 30.39 30.38 30.39
VIS10 10 10 10 10 10 10 10 10 10 10 10 10
CIG250 250 250 250 250 250 250 250 -- -- -- -- --
CoverBKNBKNBKNBKNBKNBKNBKNBKNSCTSCTSCTSCTFEW
FltCatVFRVFRVFRVFRVFRVFRVFRVFRVFRVFRVFRVFRVFR
WX--------------------------
WDir290290330320330310330350330340340340350
WSpd14 13 10 10 11 9 9 9 10 8 7 8 3
WGst-- -- -- -- -- -- -- -- -- -- -- -- --
Raw hourly METARs
KEWR 212151Z 29014KT 10SM BKN250 17/01 A3026 RMK AO2 SLP245 T01670006
KEWR 212251Z 29013KT 10SM BKN250 16/00 A3026 RMK AO2 SLP248 T01610000
KEWR 212351Z 33010KT 10SM BKN250 16/M01 A3029 RMK AO2 SLP257 T01561006 10178 20156 53010
KEWR 220051Z 32010KT 10SM BKN250 14/M01 A3031 RMK AO2 SLP263 T01441011
KEWR 220151Z 33011KT 10SM BKN250 14/M02 A3033 RMK AO2 SLP270 T01391022
KEWR 220251Z 31009KT 10SM BKN250 13/M03 A3034 RMK AO2 SLP274 T01281028 51017
KEWR 220351Z 33009KT 10SM BKN250 12/M03 A3035 RMK AO2 SLP277 T01221033
KEWR 220451Z 35009KT 10SM BKN250 11/M04 A3036 RMK AO2 SLP280 T01111044 401780028
KEWR 220551Z 33010KT 10SM SCT250 11/M06 A3037 RMK AO2 SLP282 T01061056 10156 20100 51008
KEWR 220651Z 34008KT 10SM SCT250 09/M07 A3038 RMK AO2 SLP286 T00941067
KEWR 220751Z 34007KT 10SM SCT250 09/M07 A3039 RMK AO2 SLP288 T00891067
KEWR 220851Z 34008KT 10SM SCT250 08/M07 A3038 RMK AO2 SLP286 T00781072 50004
KEWR 220951Z 35003KT 10SM FEW250 07/M08 A3039 RMK AO2 SLP288 T00671078



Page loaded:  10:53 UTC  |   03:53 AM Pacific  |   04:53 AM Mountain  |   05:53 AM Central  |   06:53 AM Eastern

 

ADVISORIES

FORECASTS

FORECASTS

OBSERVATIONS

USER TOOLS

ABOUT US